Time;durP1;ratioP1;P1;durP2;ratioP2;P2;SDS_P1;SDS_P2;PMS_P1;PMS_P2;Temp;Humidity;BMP_temperature;BMP_pressure;BME280_temperature;BME280_humidity;BME280_pressure;Samples;Min_cycle;Max_cycle;Signal;HPM_P1;HPM_P2
2023/07/13 00:00:26;;;;;;;;;3.40;3.40;;;;;;;;2081466;28;46899;-53
2023/07/13 00:01:26;;;;;;;;;2.00;2.00;;;;;;;;2086874;28;46170;-53
2023/07/13 00:02:26;;;;;;;;;1.00;1.00;;;;;;;;2088164;28;46222;-49
2023/07/13 00:03:27;;;;;;;;;1.25;1.25;;;;;;;;2088263;28;46552;-51
2023/07/13 00:04:27;;;;;;;;;1.50;1.50;;;;;;;;2088602;28;46626;-48
2023/07/13 00:05:27;;;;;;;;;1.00;1.00;;;;;;;;2088302;28;46930;-53
2023/07/13 00:06:30;;;;;;;;;2.00;1.25;;;;;;;;2087751;28;46458;-50
2023/07/13 00:07:31;;;;;;;;;2.60;2.60;;;;;;;;2087906;28;47720;-49
2023/07/13 00:08:32;;;;;;;;;3.60;2.20;;;;;;;;2086178;28;46311;-50
2023/07/13 00:09:33;;;;;;;;;2.80;2.80;;;;;;;;2088178;28;46617;-50
2023/07/13 00:10:40;;;;;;;;;4.00;4.00;;;;;;;;2088180;28;45927;-51
2023/07/13 00:11:40;;;;;;;;;2.60;2.60;;;;;;;;2088136;28;46134;-52
2023/07/13 00:12:41;;;;;;;;;1.00;1.00;;;;;;;;2088215;28;46450;-52
2023/07/13 00:13:42;;;;;;;;;2.25;2.25;;;;;;;;2088523;28;46428;-49
2023/07/13 00:14:42;;;;;;;;;1.00;1.00;;;;;;;;2088057;28;46916;-50
2023/07/13 00:15:42;;;;;;;;;3.00;3.00;;;;;;;;2088597;28;46265;-50
2023/07/13 00:16:43;;;;;;;;;1.75;1.75;;;;;;;;2086461;28;46066;-52
2023/07/13 00:17:47;;;;;;;;;3.25;3.25;;;;;;;;2088173;28;46549;-50
2023/07/13 00:18:47;;;;;;;;;2.40;2.40;;;;;;;;2087551;28;46415;-51
2023/07/13 00:19:47;;;;;;;;;5.25;3.50;;;;;;;;2087664;28;46457;-54
2023/07/13 00:20:48;;;;;;;;;2.75;2.75;;;;;;;;2088189;28;46741;-51
2023/07/13 00:21:48;;;;;;;;;2.00;2.00;;;;;;;;2088532;28;45834;-50
2023/07/13 00:22:49;;;;;;;;;2.75;2.75;;;;;;;;2087911;28;46097;-53
2023/07/13 00:23:49;;;;;;;;;3.00;3.00;;;;;;;;2087820;28;46227;-51
2023/07/13 00:24:51;;;;;;;;;2.00;2.00;;;;;;;;2088637;28;46835;-53
2023/07/13 00:25:51;;;;;;;;;2.60;1.60;;;;;;;;2086444;28;46971;-51
2023/07/13 00:26:52;;;;;;;;;1.00;1.00;;;;;;;;2088191;28;46049;-53
2023/07/13 00:27:52;;;;;;;;;1.00;1.00;;;;;;;;2087981;28;46226;-53
2023/07/13 00:28:52;;;;;;;;;1.00;1.00;;;;;;;;2087972;28;46440;-53
2023/07/13 00:29:52;;;;;;;;;1.00;1.00;;;;;;;;2088354;28;46200;-52
2023/07/13 00:30:54;;;;;;;;;2.75;1.75;;;;;;;;2088284;28;46413;-53
2023/07/13 00:31:54;;;;;;;;;2.80;2.80;;;;;;;;2088446;28;46892;-51
2023/07/13 00:32:54;;;;;;;;;2.00;2.00;;;;;;;;2088829;28;46224;-51
2023/07/13 00:33:55;;;;;;;;;1.50;0.00;;;;;;;;2087602;28;46345;-51
2023/07/13 00:34:55;;;;;;;;;1.00;1.00;;;;;;;;2087593;28;45939;-52
2023/07/13 00:35:56;;;;;;;;;2.25;2.00;;;;;;;;2087193;28;46658;-54
2023/07/13 00:36:56;;;;;;;;;2.00;2.00;;;;;;;;2087007;28;46297;-52
2023/07/13 00:37:56;;;;;;;;;2.00;2.00;;;;;;;;2087783;28;46929;-53
2023/07/13 00:38:56;;;;;;;;;1.50;1.50;;;;;;;;2087846;28;46401;-52
2023/07/13 00:39:57;;;;;;;;;1.00;1.00;;;;;;;;2087568;28;46464;-52
2023/07/13 00:40:57;;;;;;;;;0.75;0.75;;;;;;;;2086833;28;48137;-53
2023/07/13 00:41:57;;;;;;;;;0.25;0.25;;;;;;;;2087705;28;47045;-52
2023/07/13 00:42:59;;;;;;;;;2.25;2.25;;;;;;;;2088471;28;45197;-54
2023/07/13 00:43:59;;;;;;;;;2.40;2.40;;;;;;;;2087811;28;46677;-55
2023/07/13 00:45:07;;;;;;;;;1.25;1.25;;;;;;;;2088867;28;45816;-54
2023/07/13 00:46:11;;;;;;;;;1.40;1.40;;;;;;;;2087627;28;46401;-52
2023/07/13 00:47:11;;;;;;;;;1.00;1.00;;;;;;;;2087960;28;46560;-53
2023/07/13 00:48:14;;;;;;;;;1.50;1.25;;;;;;;;2088350;28;46119;-52
2023/07/13 00:49:16;;;;;;;;;0.75;0.00;;;;;;;;2088360;28;46521;-50
2023/07/13 00:50:18;;;;;;;;;2.60;2.60;;;;;;;;2088224;28;46372;-51
2023/07/13 00:51:21;;;;;;;;;3.20;2.00;;;;;;;;2088432;28;46776;-50
2023/07/13 00:52:21;;;;;;;;;1.00;1.00;;;;;;;;2087703;28;46559;-51
2023/07/13 00:53:22;;;;;;;;;1.00;1.00;;;;;;;;2088312;28;46116;-52
2023/07/13 00:54:24;;;;;;;;;1.67;0.67;;;;;;;;2088102;28;46139;-52
2023/07/13 00:55:24;;;;;;;;;1.80;1.80;;;;;;;;2088438;28;46925;-52
2023/07/13 00:56:25;;;;;;;;;2.00;2.00;;;;;;;;2088516;28;46241;-53
2023/07/13 00:57:25;;;;;;;;;0.67;0.67;;;;;;;;2086820;28;46797;-53
2023/07/13 00:58:27;;;;;;;;;0.67;0.67;;;;;;;;2088122;28;46236;-54
2023/07/13 00:59:27;;;;;;;;;2.00;2.00;;;;;;;;2088109;28;46371;-52
2023/07/13 01:00:28;;;;;;;;;1.00;1.00;;;;;;;;2087903;28;46668;-49
2023/07/13 01:01:29;;;;;;;;;1.75;1.75;;;;;;;;2087172;28;46610;-52
2023/07/13 01:02:29;;;;;;;;;2.00;1.00;;;;;;;;2088265;28;47716;-51
2023/07/13 01:03:29;;;;;;;;;0.67;0.67;;;;;;;;2087744;28;46684;-48
2023/07/13 01:04:29;;;;;;;;;0.33;0.33;;;;;;;;2088427;28;45814;-51
2023/07/13 01:05:31;;;;;;;;;1.00;1.00;;;;;;;;2087970;28;46584;-49
2023/07/13 01:06:31;;;;;;;;;0.00;0.00;;;;;;;;2087808;28;46494;-53
2023/07/13 01:07:32;;;;;;;;;1.00;1.00;;;;;;;;2088048;28;45928;-51
2023/07/13 01:08:32;;;;;;;;;1.00;0.00;;;;;;;;2088367;28;44959;-49
2023/07/13 01:09:33;;;;;;;;;1.00;1.00;;;;;;;;2087793;28;46792;-53
2023/07/13 01:10:38;;;;;;;;;0.00;0.00;;;;;;;;2088891;28;45448;-51
2023/07/13 01:11:39;;;;;;;;;1.00;1.00;;;;;;;;2087760;28;45751;-50
2023/07/13 01:12:39;;;;;;;;;1.00;0.00;;;;;;;;2096032;28;46552;-52
2023/07/13 01:13:39;;;;;;;;;0.67;0.67;;;;;;;;2085483;28;47213;-55
2023/07/13 01:14:40;;;;;;;;;1.00;1.00;;;;;;;;2086672;28;46338;-50
2023/07/13 01:15:42;;;;;;;;;0.00;0.00;;;;;;;;2086701;28;46394;-51
2023/07/13 01:16:46;;;;;;;;;2.00;0.25;;;;;;;;2086683;28;46217;-53
2023/07/13 01:17:47;;;;;;;;;0.25;0.25;;;;;;;;2087134;28;45681;-52
2023/07/13 01:18:47;;;;;;;;;0.00;0.00;;;;;;;;2086817;28;46061;-53
2023/07/13 01:19:47;;;;;;;;;0.00;0.00;;;;;;;;2086641;28;46260;-52
2023/07/13 01:20:51;;;;;;;;;1.00;1.00;;;;;;;;2086960;28;46876;-53
2023/07/13 01:21:52;;;;;;;;;1.00;1.00;;;;;;;;2086477;28;46131;-52
2023/07/13 01:22:52;;;;;;;;;1.00;1.00;;;;;;;;2087022;28;47160;-51
2023/07/13 01:23:53;;;;;;;;;1.67;1.67;;;;;;;;2087102;28;45064;-52
2023/07/13 01:24:53;;;;;;;;;1.67;1.67;;;;;;;;2087224;28;46450;-51
2023/07/13 01:25:55;;;;;;;;;0.33;0.33;;;;;;;;2087171;28;45659;-53
2023/07/13 01:26:55;;;;;;;;;2.00;1.00;;;;;;;;2087058;28;46240;-51
2023/07/13 01:27:55;;;;;;;;;0.33;0.33;;;;;;;;2086468;28;46654;-53
2023/07/13 01:28:56;;;;;;;;;0.00;0.00;;;;;;;;2087199;28;45475;-51
2023/07/13 01:30:01;;;;;;;;;0.00;0.00;;;;;;;;2087335;28;45868;-53
2023/07/13 01:31:02;;;;;;;;;0.75;0.75;;;;;;;;2085924;28;45222;-52
2023/07/13 01:32:02;;;;;;;;;1.00;1.00;;;;;;;;2086904;28;46286;-53
2023/07/13 01:33:03;;;;;;;;;3.00;0.00;;;;;;;;2086993;28;46291;-51
2023/07/13 01:34:04;;;;;;;;;1.25;1.25;;;;;;;;2086438;28;45715;-53
2023/07/13 01:35:05;;;;;;;;;1.00;1.00;;;;;;;;2086719;28;46435;-52
2023/07/13 01:36:06;;;;;;;;;0.00;0.00;;;;;;;;2087328;28;45672;-48
2023/07/13 01:37:07;;;;;;;;;2.00;1.75;;;;;;;;2083263;28;46507;-54
2023/07/13 01:38:08;;;;;;;;;0.67;0.67;;;;;;;;2086093;28;46281;-52
2023/07/13 01:39:08;;;;;;;;;1.50;0.25;;;;;;;;2086466;28;45315;-51
2023/07/13 01:40:08;;;;;;;;;1.00;1.00;;;;;;;;2069774;28;46199;-53
2023/07/13 01:41:09;;;;;;;;;0.00;0.00;;;;;;;;2069498;28;46257;-50
2023/07/13 01:42:09;;;;;;;;;1.00;1.00;;;;;;;;2086576;28;46868;-51
2023/07/13 01:43:09;;;;;;;;;0.33;0.33;;;;;;;;2087216;28;46491;-51
2023/07/13 01:44:09;;;;;;;;;2.00;2.00;;;;;;;;2086201;28;45302;-54
2023/07/13 01:45:09;;;;;;;;;1.00;1.00;;;;;;;;2086446;28;46824;-51
2023/07/13 01:46:10;;;;;;;;;1.67;1.33;;;;;;;;2086551;28;46157;-53
2023/07/13 01:47:10;;;;;;;;;1.00;1.00;;;;;;;;2087130;28;46573;-51
2023/07/13 01:48:11;;;;;;;;;0.67;0.67;;;;;;;;2087674;28;46222;-53
2023/07/13 01:49:11;;;;;;;;;1.67;1.67;;;;;;;;2086145;28;46792;-53
2023/07/13 01:50:11;;;;;;;;;0.00;0.00;;;;;;;;2086186;28;47042;-54
2023/07/13 01:51:12;;;;;;;;;1.00;1.00;;;;;;;;2078768;28;46340;-51
2023/07/13 01:52:12;;;;;;;;;1.00;1.00;;;;;;;;2088604;28;46968;-47
2023/07/13 01:53:12;;;;;;;;;0.00;0.00;;;;;;;;2088201;28;46478;-52
2023/07/13 01:54:12;;;;;;;;;2.00;1.33;;;;;;;;2088461;28;46356;-53
2023/07/13 01:55:13;;;;;;;;;0.75;0.75;;;;;;;;2088647;28;46219;-52
2023/07/13 01:56:13;;;;;;;;;1.67;1.33;;;;;;;;2088519;28;45817;-51
2023/07/13 01:57:14;;;;;;;;;1.00;1.00;;;;;;;;2089239;28;46524;-54
2023/07/13 01:58:14;;;;;;;;;2.00;1.00;;;;;;;;2089188;28;45614;-51
2023/07/13 01:59:14;;;;;;;;;1.00;1.00;;;;;;;;2089417;28;46273;-53
2023/07/13 02:00:14;;;;;;;;;1.00;0.00;;;;;;;;2088762;28;46853;-53
2023/07/13 02:01:15;;;;;;;;;1.00;1.00;;;;;;;;2089205;28;46482;-54
2023/07/13 02:02:15;;;;;;;;;1.00;0.00;;;;;;;;2089330;28;45521;-49
2023/07/13 02:03:17;;;;;;;;;0.00;0.00;;;;;;;;2089577;28;45967;-50
2023/07/13 02:04:18;;;;;;;;;1.00;1.00;;;;;;;;2089442;28;47031;-54
2023/07/13 02:05:18;;;;;;;;;2.00;2.00;;;;;;;;2089195;28;45538;-50
2023/07/13 02:06:18;;;;;;;;;2.00;2.00;;;;;;;;2088878;28;46648;-52
2023/07/13 02:07:19;;;;;;;;;0.33;0.33;;;;;;;;2089311;28;46276;-53
2023/07/13 02:08:19;;;;;;;;;1.00;1.00;;;;;;;;2088614;28;45065;-51
2023/07/13 02:09:19;;;;;;;;;0.67;0.67;;;;;;;;2087906;28;46202;-52
2023/07/13 02:10:20;;;;;;;;;0.00;0.00;;;;;;;;2088117;28;46635;-54
2023/07/13 02:11:20;;;;;;;;;2.00;2.00;;;;;;;;2088366;28;45329;-53
2023/07/13 02:12:20;;;;;;;;;1.00;1.00;;;;;;;;2088567;28;46400;-52
2023/07/13 02:13:20;;;;;;;;;0.67;0.67;;;;;;;;2089144;28;46208;-52
2023/07/13 02:14:21;;;;;;;;;0.33;0.33;;;;;;;;2088812;28;46063;-54
2023/07/13 02:15:21;;;;;;;;;1.00;1.00;;;;;;;;2089120;28;46494;-52
2023/07/13 02:16:21;;;;;;;;;1.67;1.67;;;;;;;;2087721;28;46167;-51
2023/07/13 02:17:21;;;;;;;;;0.33;0.33;;;;;;;;2088208;28;46761;-52
2023/07/13 02:18:21;;;;;;;;;0.00;0.00;;;;;;;;2088216;28;46377;-52
2023/07/13 02:19:22;;;;;;;;;0.00;0.00;;;;;;;;2088346;28;46697;-54
2023/07/13 02:20:22;;;;;;;;;1.00;1.00;;;;;;;;2088195;28;46361;-53
2023/07/13 02:21:23;;;;;;;;;0.33;0.33;;;;;;;;2087670;28;46160;-54
2023/07/13 02:22:23;;;;;;;;;1.00;1.00;;;;;;;;2079561;28;46171;-53
2023/07/13 02:23:24;;;;;;;;;2.00;1.00;;;;;;;;2079528;28;46781;-54
2023/07/13 02:24:24;;;;;;;;;0.00;0.00;;;;;;;;2086563;28;46023;-52
2023/07/13 02:25:26;;;;;;;;;1.67;1.67;;;;;;;;2088285;28;46681;-51
2023/07/13 02:26:27;;;;;;;;;0.00;0.00;;;;;;;;2087199;28;46781;-51
2023/07/13 02:27:27;;;;;;;;;0.00;0.00;;;;;;;;2088190;28;46085;-51
2023/07/13 02:28:27;;;;;;;;;1.00;1.00;;;;;;;;2087268;28;46242;-51
2023/07/13 02:29:27;;;;;;;;;0.00;0.00;;;;;;;;2088554;28;46110;-53
2023/07/13 02:30:29;;;;;;;;;0.00;0.00;;;;;;;;2087547;28;46403;-51
2023/07/13 02:31:29;;;;;;;;;0.25;0.00;;;;;;;;2087995;28;46788;-53
2023/07/13 02:32:30;;;;;;;;;0.67;0.67;;;;;;;;2087654;28;46428;-51
2023/07/13 02:33:30;;;;;;;;;1.00;0.00;;;;;;;;2087735;28;46522;-49
2023/07/13 02:34:30;;;;;;;;;2.00;0.00;;;;;;;;2079384;28;45994;-50
2023/07/13 02:35:30;;;;;;;;;1.67;1.00;;;;;;;;2079151;28;45755;-50
2023/07/13 02:36:31;;;;;;;;;0.00;0.00;;;;;;;;2087641;28;46308;-51
2023/07/13 02:37:31;;;;;;;;;2.33;1.00;;;;;;;;2087435;28;46135;-52
2023/07/13 02:38:35;;;;;;;;;1.00;1.00;;;;;;;;2088237;28;46595;-52
2023/07/13 02:39:36;;;;;;;;;1.00;1.00;;;;;;;;2087295;28;46819;-52
2023/07/13 02:40:36;;;;;;;;;0.67;0.67;;;;;;;;2087737;28;46498;-49
2023/07/13 02:41:36;;;;;;;;;1.00;1.00;;;;;;;;2087878;28;46218;-50
2023/07/13 02:42:36;;;;;;;;;1.67;1.00;;;;;;;;2086216;28;46773;-52
2023/07/13 02:43:37;;;;;;;;;0.00;0.00;;;;;;;;2087788;28;46997;-52
2023/07/13 02:44:37;;;;;;;;;0.67;0.67;;;;;;;;2087469;28;46229;-53
2023/07/13 02:45:37;;;;;;;;;0.00;0.00;;;;;;;;2087966;28;47027;-51
2023/07/13 02:46:37;;;;;;;;;1.67;1.67;;;;;;;;2088036;28;46272;-52
2023/07/13 02:47:38;;;;;;;;;1.33;1.33;;;;;;;;2087116;28;45758;-50
2023/07/13 02:48:38;;;;;;;;;0.00;0.00;;;;;;;;2088690;28;46322;-51
2023/07/13 02:49:38;;;;;;;;;0.00;0.00;;;;;;;;2087981;28;46828;-50
2023/07/13 02:50:39;;;;;;;;;0.00;0.00;;;;;;;;2088639;28;46526;-52
2023/07/13 02:51:39;;;;;;;;;0.00;0.00;;;;;;;;2088638;28;46216;-50
2023/07/13 02:52:39;;;;;;;;;1.00;1.00;;;;;;;;2089349;28;45753;-52
2023/07/13 02:53:39;;;;;;;;;1.00;0.33;;;;;;;;2088597;28;46838;-48
2023/07/13 02:54:39;;;;;;;;;1.33;0.67;;;;;;;;2088382;28;46472;-49
2023/07/13 02:55:40;;;;;;;;;0.00;0.00;;;;;;;;2088959;28;46159;-50
2023/07/13 02:56:41;;;;;;;;;0.00;0.00;;;;;;;;2087452;28;46273;-49
2023/07/13 02:57:41;;;;;;;;;0.00;0.00;;;;;;;;2088951;28;46475;-51
2023/07/13 02:58:41;;;;;;;;;1.33;1.33;;;;;;;;2088526;28;46913;-51
2023/07/13 02:59:42;;;;;;;;;1.00;0.00;;;;;;;;2087300;28;46781;-52
2023/07/13 03:00:43;;;;;;;;;0.67;0.67;;;;;;;;2088987;28;45994;-49
2023/07/13 03:01:43;;;;;;;;;1.67;0.00;;;;;;;;2088898;28;45529;-51
2023/07/13 03:02:43;;;;;;;;;0.00;0.00;;;;;;;;2087966;28;46754;-49
2023/07/13 03:03:44;;;;;;;;;0.00;0.00;;;;;;;;2088349;28;46420;-48
2023/07/13 03:04:44;;;;;;;;;1.00;1.00;;;;;;;;2088571;28;46457;-49
2023/07/13 03:05:49;;;;;;;;;1.00;1.00;;;;;;;;2088758;28;46122;-49
2023/07/13 03:06:50;;;;;;;;;1.25;1.25;;;;;;;;2088818;28;47290;-48
2023/07/13 03:07:50;;;;;;;;;2.33;0.33;;;;;;;;2088718;28;46639;-51
2023/07/13 03:08:50;;;;;;;;;0.00;0.00;;;;;;;;2087922;28;46303;-49
2023/07/13 03:09:55;;;;;;;;;0.33;0.33;;;;;;;;2088101;28;46391;-49
2023/07/13 03:11:02;;;;;;;;;0.75;0.75;;;;;;;;2088619;28;46479;-51
2023/07/13 03:12:03;;;;;;;;;0.75;0.75;;;;;;;;2088384;28;46637;-50
2023/07/13 03:13:03;;;;;;;;;0.00;0.00;;;;;;;;2088172;28;46769;-52
2023/07/13 03:14:04;;;;;;;;;0.00;0.00;;;;;;;;2088175;28;46483;-52
2023/07/13 03:15:04;;;;;;;;;1.00;0.00;;;;;;;;2088022;28;46422;-51
2023/07/13 03:16:05;;;;;;;;;0.00;0.00;;;;;;;;2087518;28;46853;-52
2023/07/13 03:17:05;;;;;;;;;0.50;0.50;;;;;;;;2088226;28;45640;-50
2023/07/13 03:18:06;;;;;;;;;1.33;1.33;;;;;;;;2088846;28;46318;-48
2023/07/13 03:19:06;;;;;;;;;1.00;1.00;;;;;;;;2088023;28;46710;-45
2023/07/13 03:20:07;;;;;;;;;0.00;0.00;;;;;;;;2088500;28;46206;-51
2023/07/13 03:21:07;;;;;;;;;2.00;0.00;;;;;;;;2096549;28;46987;-48
2023/07/13 03:22:07;;;;;;;;;0.75;0.75;;;;;;;;2096155;28;46620;-48
2023/07/13 03:23:07;;;;;;;;;0.00;0.00;;;;;;;;2087879;28;46227;-50
2023/07/13 03:24:07;;;;;;;;;1.00;1.00;;;;;;;;2089059;28;45700;-49
2023/07/13 03:25:08;;;;;;;;;0.00;0.00;;;;;;;;2088528;28;46578;-47
2023/07/13 03:26:10;;;;;;;;;0.00;0.00;;;;;;;;2088806;28;46806;-51
2023/07/13 03:27:11;;;;;;;;;1.80;1.40;;;;;;;;2088793;28;46232;-48
2023/07/13 03:28:12;;;;;;;;;1.00;1.00;;;;;;;;2088793;28;46256;-48
2023/07/13 03:29:12;;;;;;;;;1.20;1.20;;;;;;;;2088605;28;45223;-48
2023/07/13 03:30:12;;;;;;;;;1.00;1.00;;;;;;;;2088654;28;46327;-49
2023/07/13 03:31:15;;;;;;;;;0.00;0.00;;;;;;;;2087323;28;46489;-48
2023/07/13 03:32:15;;;;;;;;;0.25;0.25;;;;;;;;2088468;28;47452;-52
2023/07/13 03:33:15;;;;;;;;;1.00;1.00;;;;;;;;2088434;28;46711;-50
2023/07/13 03:34:15;;;;;;;;;1.00;1.00;;;;;;;;2088397;28;46702;-51
2023/07/13 03:35:15;;;;;;;;;1.00;1.00;;;;;;;;2088594;28;46071;-46
2023/07/13 03:36:18;;;;;;;;;1.00;0.67;;;;;;;;2088755;28;46929;-49
2023/07/13 03:37:19;;;;;;;;;2.00;0.25;;;;;;;;2088538;28;46172;-52
2023/07/13 03:38:19;;;;;;;;;0.00;0.00;;;;;;;;2086618;28;45851;-50
2023/07/13 03:39:19;;;;;;;;;2.00;0.33;;;;;;;;2088814;28;45211;-51
2023/07/13 03:40:20;;;;;;;;;0.33;0.33;;;;;;;;2088426;28;46284;-50
2023/07/13 03:41:22;;;;;;;;;0.67;0.67;;;;;;;;2088439;28;46430;-50
2023/07/13 03:42:22;;;;;;;;;2.50;1.00;;;;;;;;2088236;28;46065;-53
2023/07/13 03:43:22;;;;;;;;;0.00;0.00;;;;;;;;2088652;28;46355;-53
2023/07/13 03:44:23;;;;;;;;;0.00;0.00;;;;;;;;2088466;28;45100;-54
2023/07/13 03:45:23;;;;;;;;;0.00;0.00;;;;;;;;2088402;28;46818;-53
2023/07/13 03:46:23;;;;;;;;;0.00;0.00;;;;;;;;2088760;28;46441;-52
2023/07/13 03:47:23;;;;;;;;;0.00;0.00;;;;;;;;2087453;28;46375;-51
2023/07/13 03:48:23;;;;;;;;;0.00;0.00;;;;;;;;2088134;28;46658;-52
2023/07/13 03:49:24;;;;;;;;;0.00;0.00;;;;;;;;2089424;28;45459;-52
2023/07/13 03:50:24;;;;;;;;;0.00;0.00;;;;;;;;2088545;28;46198;-48
2023/07/13 03:51:24;;;;;;;;;0.00;0.00;;;;;;;;2088289;28;46385;-54
2023/07/13 03:52:24;;;;;;;;;0.00;0.00;;;;;;;;2088509;28;47039;-52
2023/07/13 03:53:24;;;;;;;;;1.00;1.00;;;;;;;;2087214;28;46250;-53
2023/07/13 03:54:25;;;;;;;;;1.00;1.00;;;;;;;;2095517;28;46193;-55
2023/07/13 03:55:26;;;;;;;;;0.00;0.00;;;;;;;;2096145;28;45819;-52
2023/07/13 03:56:27;;;;;;;;;0.00;0.00;;;;;;;;2096000;28;46379;-51
2023/07/13 03:57:27;;;;;;;;;1.00;1.00;;;;;;;;2096158;28;46523;-52
2023/07/13 03:58:27;;;;;;;;;0.00;0.00;;;;;;;;2095503;28;46270;-50
2023/07/13 03:59:27;;;;;;;;;0.00;0.00;;;;;;;;2095667;28;46507;-50
2023/07/13 04:00:27;;;;;;;;;0.33;0.33;;;;;;;;2095553;28;46697;-52
2023/07/13 04:01:28;;;;;;;;;1.00;0.33;;;;;;;;2095660;28;46706;-52
2023/07/13 04:02:28;;;;;;;;;0.67;0.33;;;;;;;;2096237;28;45612;-52
2023/07/13 04:03:29;;;;;;;;;1.00;0.00;;;;;;;;2095261;28;46347;-55
2023/07/13 04:04:30;;;;;;;;;0.75;0.00;;;;;;;;2094595;28;46181;-53
2023/07/13 04:05:30;;;;;;;;;0.00;0.00;;;;;;;;2095340;28;46951;-54
2023/07/13 04:06:31;;;;;;;;;0.33;0.33;;;;;;;;2095584;28;46471;-53
2023/07/13 04:07:31;;;;;;;;;0.33;0.33;;;;;;;;2095965;28;46427;-54
2023/07/13 04:08:33;;;;;;;;;1.00;1.00;;;;;;;;2095855;28;46050;-52
2023/07/13 04:09:34;;;;;;;;;1.25;0.25;;;;;;;;2095963;28;46360;-50
2023/07/13 04:10:34;;;;;;;;;0.33;0.00;;;;;;;;2095009;28;46340;-52
2023/07/13 04:11:36;;;;;;;;;1.00;1.00;;;;;;;;2095780;28;45795;-54
2023/07/13 04:12:36;;;;;;;;;0.75;0.75;;;;;;;;2095836;28;46326;-48
2023/07/13 04:13:36;;;;;;;;;1.67;1.67;;;;;;;;2096041;28;46221;-49
2023/07/13 04:14:36;;;;;;;;;0.00;0.00;;;;;;;;2095284;28;46480;-50
2023/07/13 04:15:38;;;;;;;;;0.00;0.00;;;;;;;;2095762;28;46423;-52
2023/07/13 04:16:38;;;;;;;;;1.00;1.00;;;;;;;;2095348;28;46924;-52
2023/07/13 04:17:38;;;;;;;;;1.33;1.33;;;;;;;;2095803;28;46871;-52
2023/07/13 04:18:39;;;;;;;;;0.00;0.00;;;;;;;;2095383;28;45461;-52
2023/07/13 04:19:39;;;;;;;;;0.00;0.00;;;;;;;;2091384;28;45768;-50
2023/07/13 04:20:39;;;;;;;;;0.00;0.00;;;;;;;;2095436;28;46509;-51
2023/07/13 04:21:39;;;;;;;;;0.00;0.00;;;;;;;;2087297;28;46877;-51
2023/07/13 04:22:40;;;;;;;;;0.67;0.00;;;;;;;;2087334;28;46499;-48
2023/07/13 04:23:40;;;;;;;;;0.00;0.00;;;;;;;;2095079;28;46245;-52
2023/07/13 04:24:40;;;;;;;;;0.00;0.00;;;;;;;;2095565;28;46575;-51
2023/07/13 04:25:44;;;;;;;;;2.00;0.00;;;;;;;;2096136;28;46753;-53
2023/07/13 04:26:45;;;;;;;;;2.25;1.00;;;;;;;;2095684;28;46303;-51
2023/07/13 04:27:45;;;;;;;;;1.00;0.00;;;;;;;;2088124;28;46768;-49
2023/07/13 04:28:45;;;;;;;;;1.00;1.00;;;;;;;;2088462;28;46058;-52
2023/07/13 04:29:45;;;;;;;;;2.33;0.33;;;;;;;;2088131;28;45000;-51
2023/07/13 04:30:45;;;;;;;;;1.33;0.00;;;;;;;;2088133;28;46940;-51
2023/07/13 04:31:46;;;;;;;;;0.00;0.00;;;;;;;;2087805;28;46373;-51
2023/07/13 04:32:47;;;;;;;;;0.00;0.00;;;;;;;;2088074;28;46209;-51
2023/07/13 04:33:47;;;;;;;;;1.00;0.00;;;;;;;;2088728;28;46640;-51
2023/07/13 04:34:53;;;;;;;;;0.00;0.00;;;;;;;;2088282;28;44986;-52
2023/07/13 04:35:56;;;;;;;;;1.00;1.00;;;;;;;;2088485;28;45664;-51
2023/07/13 04:36:56;;;;;;;;;0.00;0.00;;;;;;;;2087980;28;46534;-53
2023/07/13 04:37:56;;;;;;;;;2.00;2.00;;;;;;;;2087087;28;46428;-50
2023/07/13 04:38:56;;;;;;;;;2.00;1.00;;;;;;;;2087919;28;46292;-52
2023/07/13 04:39:56;;;;;;;;;1.00;1.00;;;;;;;;2087867;28;46857;-50
2023/07/13 04:40:58;;;;;;;;;0.00;0.00;;;;;;;;2087904;28;46831;-50
2023/07/13 04:41:58;;;;;;;;;1.00;1.00;;;;;;;;2088420;28;45880;-51
2023/07/13 04:42:58;;;;;;;;;0.00;0.00;;;;;;;;2087959;28;46614;-50
2023/07/13 04:43:58;;;;;;;;;0.00;0.00;;;;;;;;2088007;28;46509;-49
2023/07/13 04:44:58;;;;;;;;;0.00;0.00;;;;;;;;2079852;28;46485;-53
2023/07/13 04:46:06;;;;;;;;;2.00;2.00;;;;;;;;2087096;28;46057;-53
2023/07/13 04:47:06;;;;;;;;;0.75;0.75;;;;;;;;2088247;28;45126;-49
2023/07/13 04:48:06;;;;;;;;;0.67;0.67;;;;;;;;2087713;28;46254;-50
2023/07/13 04:49:07;;;;;;;;;1.00;0.00;;;;;;;;2087970;28;45572;-53
2023/07/13 04:50:08;;;;;;;;;0.00;0.00;;;;;;;;2088153;28;46673;-48
2023/07/13 04:51:09;;;;;;;;;2.00;1.00;;;;;;;;2088100;28;46346;-52
2023/07/13 04:52:09;;;;;;;;;0.00;0.00;;;;;;;;2087429;28;46289;-51
2023/07/13 04:53:10;;;;;;;;;1.00;1.00;;;;;;;;2085776;28;46131;-50
2023/07/13 04:54:10;;;;;;;;;1.25;1.25;;;;;;;;2088373;28;46683;-52
2023/07/13 04:55:10;;;;;;;;;1.00;1.00;;;;;;;;2088357;28;46047;-51
2023/07/13 04:56:11;;;;;;;;;0.00;0.00;;;;;;;;2096010;28;46442;-49
2023/07/13 04:57:11;;;;;;;;;0.67;0.67;;;;;;;;2096199;28;46465;-53
2023/07/13 04:58:11;;;;;;;;;1.00;1.00;;;;;;;;2088015;28;45495;-51
2023/07/13 04:59:11;;;;;;;;;0.00;0.00;;;;;;;;2087953;28;48612;-48
2023/07/13 05:00:12;;;;;;;;;0.33;0.00;;;;;;;;2087979;28;45788;-50
2023/07/13 05:01:13;;;;;;;;;1.00;0.00;;;;;;;;2085845;28;46486;-50
2023/07/13 05:02:13;;;;;;;;;2.00;0.33;;;;;;;;2088670;28;45073;-46
2023/07/13 05:03:14;;;;;;;;;0.00;0.00;;;;;;;;2087176;28;46766;-50
2023/07/13 05:04:14;;;;;;;;;1.00;1.00;;;;;;;;2087457;28;45709;-49
2023/07/13 05:05:14;;;;;;;;;0.00;0.00;;;;;;;;2088111;28;46420;-47
2023/07/13 05:06:14;;;;;;;;;1.00;1.00;;;;;;;;2088245;28;46189;-48
2023/07/13 05:07:15;;;;;;;;;0.00;0.00;;;;;;;;2088418;28;46396;-51
2023/07/13 05:08:15;;;;;;;;;1.67;1.67;;;;;;;;2087716;28;46830;-48
2023/07/13 05:09:15;;;;;;;;;1.00;0.50;;;;;;;;2087267;28;48081;-48
2023/07/13 05:10:15;;;;;;;;;0.25;0.25;;;;;;;;2087662;28;46817;-48
2023/07/13 05:11:15;;;;;;;;;1.75;1.75;;;;;;;;2087564;28;46763;-49
2023/07/13 05:12:16;;;;;;;;;2.50;2.50;;;;;;;;2088547;28;45933;-52
2023/07/13 05:13:16;;;;;;;;;1.00;0.75;;;;;;;;2095571;28;46087;-49
2023/07/13 05:14:16;;;;;;;;;1.75;1.00;;;;;;;;2095896;28;46238;-48
2023/07/13 05:15:20;;;;;;;;;1.00;1.00;;;;;;;;2087698;28;46363;-51
2023/07/13 05:16:20;;;;;;;;;1.60;0.60;;;;;;;;2088254;28;45647;-52
2023/07/13 05:17:21;;;;;;;;;0.00;0.00;;;;;;;;2087535;28;46141;-49
2023/07/13 05:18:21;;;;;;;;;0.25;0.25;;;;;;;;2087969;28;46381;-52
2023/07/13 05:19:21;;;;;;;;;1.50;0.00;;;;;;;;2087599;28;46326;-52
2023/07/13 05:20:21;;;;;;;;;0.00;0.00;;;;;;;;2086896;28;46702;-53
2023/07/13 05:21:22;;;;;;;;;0.00;0.00;;;;;;;;2088480;28;46418;-50
2023/07/13 05:22:22;;;;;;;;;2.00;2.00;;;;;;;;2087764;28;46861;-50
2023/07/13 05:23:22;;;;;;;;;0.75;0.75;;;;;;;;2086053;28;46779;-50
2023/07/13 05:24:23;;;;;;;;;0.50;0.50;;;;;;;;2087101;28;46953;-51
2023/07/13 05:25:23;;;;;;;;;0.00;0.00;;;;;;;;2088403;28;46052;-49
2023/07/13 05:26:23;;;;;;;;;0.75;0.75;;;;;;;;2086531;28;46170;-52
2023/07/13 05:27:23;;;;;;;;;2.25;1.50;;;;;;;;2088744;28;46776;-49
2023/07/13 05:28:24;;;;;;;;;2.00;0.00;;;;;;;;2089279;28;46280;-54
2023/07/13 05:29:24;;;;;;;;;1.00;1.00;;;;;;;;2095835;28;46985;-49
2023/07/13 05:30:25;;;;;;;;;1.50;1.50;;;;;;;;2096686;28;46952;-51
2023/07/13 05:31:25;;;;;;;;;0.67;0.33;;;;;;;;2089488;28;46401;-51
2023/07/13 05:32:25;;;;;;;;;2.00;2.00;;;;;;;;2089716;28;46153;-52
2023/07/13 05:33:27;;;;;;;;;2.00;1.00;;;;;;;;2089821;28;45227;-51
2023/07/13 05:34:27;;;;;;;;;1.50;1.00;;;;;;;;2089032;28;46902;-51
2023/07/13 05:35:27;;;;;;;;;2.00;2.00;;;;;;;;2089386;28;45563;-43
2023/07/13 05:36:28;;;;;;;;;1.00;1.00;;;;;;;;2089965;28;46117;-44
2023/07/13 05:37:28;;;;;;;;;0.00;0.00;;;;;;;;2088878;28;46762;-44
2023/07/13 05:38:29;;;;;;;;;0.00;0.00;;;;;;;;2086478;28;46301;-43
2023/07/13 05:39:29;;;;;;;;;1.67;1.67;;;;;;;;2086837;28;46172;-44
2023/07/13 05:40:29;;;;;;;;;1.00;1.00;;;;;;;;2088292;28;46636;-47
2023/07/13 05:41:30;;;;;;;;;3.33;2.67;;;;;;;;2086296;28;46929;-44
2023/07/13 05:42:31;;;;;;;;;0.33;0.33;;;;;;;;2088739;28;46992;-45
2023/07/13 05:43:31;;;;;;;;;1.00;1.00;;;;;;;;2089480;28;46243;-44
2023/07/13 05:44:31;;;;;;;;;0.50;0.50;;;;;;;;2086719;28;45512;-44
2023/07/13 05:45:31;;;;;;;;;2.00;1.00;;;;;;;;2089473;28;46466;-44
2023/07/13 05:46:31;;;;;;;;;1.67;1.00;;;;;;;;2088722;28;46933;-44
2023/07/13 05:47:32;;;;;;;;;0.67;0.67;;;;;;;;2089601;28;46472;-44
2023/07/13 05:48:32;;;;;;;;;1.00;1.00;;;;;;;;2087395;28;46677;-44
2023/07/13 05:49:32;;;;;;;;;3.00;1.67;;;;;;;;2088772;28;46630;-42
2023/07/13 05:50:32;;;;;;;;;0.00;0.00;;;;;;;;2089592;28;45503;-43
2023/07/13 05:51:33;;;;;;;;;1.00;1.00;;;;;;;;2089435;28;46228;-43
2023/07/13 05:52:33;;;;;;;;;2.00;1.00;;;;;;;;2088865;28;46822;-44
2023/07/13 05:53:34;;;;;;;;;1.67;1.67;;;;;;;;2089165;28;46488;-44
2023/07/13 05:54:35;;;;;;;;;3.50;3.50;;;;;;;;2089212;28;46110;-43
2023/07/13 05:55:35;;;;;;;;;3.00;1.00;;;;;;;;2089799;28;45891;-43
2023/07/13 05:56:35;;;;;;;;;1.33;1.33;;;;;;;;2087354;28;47175;-43
2023/07/13 05:57:35;;;;;;;;;1.67;1.67;;;;;;;;2089759;28;46440;-42
2023/07/13 05:58:36;;;;;;;;;3.00;2.00;;;;;;;;2089019;28;46701;-44
2023/07/13 05:59:36;;;;;;;;;0.67;0.67;;;;;;;;2089497;28;46510;-43
2023/07/13 06:00:37;;;;;;;;;1.00;1.00;;;;;;;;2087832;28;46603;-44
2023/07/13 06:01:37;;;;;;;;;3.00;1.67;;;;;;;;2086710;28;46594;-42
2023/07/13 06:02:37;;;;;;;;;1.00;1.00;;;;;;;;2089011;28;46760;-42
2023/07/13 06:03:40;;;;;;;;;3.00;1.00;;;;;;;;2089840;28;46359;-42